Terminal Aerodrome Forecast
Issued by NWS

Current Version | Previous Version | Graphics & Text | Print | Product List | Glossary On
Versions: 1 2 3 4 5 6 7 8 9 10 11 12 13 14 15 16 17 18 19 20 21 22 23 24 25 26 27 28 29
079
FTUS41 KPBZ 081825 AAA
TAFHLG
TAF AMD
KHLG 081825Z 0818/0918 22005KT 3SM -RASN SCT006 OVC015
      TEMPO 0818/0822 2SM -SN BKN006
     FM082200 25005KT P6SM OVC015
     FM090800 29005KT 3SM -SHSN OVC010
     FM091500 30008KT P6SM BKN020=

USA.gov is the U.S. government's official web portal to all federal, state and local government web resources and services.